createdAt,value
2019-02-20T05:01:42.502Z,0.40
2019-02-20T05:04:04.964Z,0.40
2019-02-20T05:06:27.405Z,0.40
2019-02-20T05:08:49.934Z,0.40
2019-02-20T05:11:12.457Z,0.40
2019-02-20T05:13:35.007Z,0.30
2019-02-20T06:01:49.979Z,0.00
2019-02-20T06:04:12.534Z,0.00
2019-02-20T06:06:35.916Z,0.00
2019-02-20T06:08:58.462Z,0.00
2019-02-20T06:11:20.891Z,0.00
2019-02-20T06:13:44.626Z,0.00
2019-02-20T07:01:43.251Z,0.00
2019-02-20T07:04:05.927Z,0.10
2019-02-20T07:07:00.739Z,0.20
2019-02-20T07:09:59.850Z,0.20
2019-02-20T07:12:49.618Z,0.20
2019-02-20T08:02:16.462Z,1.70
2019-02-20T08:04:51.193Z,1.90
2019-02-20T08:07:26.312Z,2.00
2019-02-20T08:10:01.670Z,2.20
2019-02-20T08:12:37.798Z,2.40
2019-02-20T09:02:35.291Z,7.10
2019-02-20T09:05:10.299Z,7.20
2019-02-20T09:07:45.503Z,7.40
2019-02-20T09:10:20.893Z,7.40
2019-02-20T09:12:56.072Z,7.60
2019-02-20T10:00:40.388Z,13.50
2019-02-20T10:03:02.847Z,13.30
2019-02-20T10:05:25.375Z,13.50
2019-02-20T10:07:47.861Z,13.90
2019-02-20T10:10:10.421Z,14.10
2019-02-20T10:12:32.864Z,14.20
2019-02-20T10:14:55.524Z,14.20
2019-02-20T10:52:11.567Z,18.00
2019-02-20T10:54:46.635Z,18.70
2019-02-20T10:57:21.667Z,19.20
2019-02-20T10:59:57.015Z,19.10
2019-02-20T11:02:32.113Z,18.80
2019-02-20T11:05:07.166Z,19.20
2019-02-20T11:07:42.284Z,19.80
2019-02-20T11:10:17.191Z,19.90
2019-02-20T11:12:52.439Z,20.10
2019-02-20T12:02:47.690Z,22.00
2019-02-20T12:05:22.961Z,21.20
2019-02-20T12:07:58.169Z,20.80
2019-02-20T12:10:33.215Z,20.60
2019-02-20T12:13:08.507Z,21.00
2019-02-20T13:00:43.770Z,22.80
2019-02-20T13:03:19.063Z,23.40
2019-02-20T13:05:54.065Z,23.70
2019-02-20T13:08:29.307Z,24.10
2019-02-20T13:11:04.327Z,24.00
2019-02-20T13:13:39.487Z,23.90
2019-02-20T13:19:05.447Z,24.50
2019-02-20T13:21:40.916Z,24.70
2019-02-20T13:24:16.330Z,24.50
2019-02-20T13:26:53.166Z,25.50
2019-02-20T13:29:28.431Z,27.30
2019-02-20T13:32:03.626Z,28.20
2019-02-20T13:34:39.043Z,27.70
2019-02-20T13:37:14.111Z,27.50
2019-02-20T14:03:26.411Z,29.50
2019-02-20T14:12:03.063Z,33.00
2019-02-20T14:14:25.730Z,33.10
2019-02-20T14:49:14.875Z,20.60
2019-02-20T14:51:37.426Z,20.00
2019-02-20T14:53:59.995Z,19.70
2019-02-20T14:56:22.797Z,19.60
2019-02-20T14:58:57.635Z,19.60
2019-02-20T15:01:32.976Z,19.30
2019-02-20T15:04:08.175Z,19.00
2019-02-20T15:06:43.354Z,18.80
2019-02-20T15:09:18.603Z,18.50
2019-02-20T15:11:53.814Z,18.20
2019-02-20T15:14:29.342Z,18.10
2019-02-20T16:00:16.103Z,15.10
2019-02-20T16:02:51.616Z,14.90
2019-02-20T16:05:26.694Z,14.70
2019-02-20T16:08:01.635Z,14.50
2019-02-20T16:10:36.779Z,14.40
2019-02-20T16:13:11.859Z,14.30
2019-02-20T16:49:00.707Z,12.50
2019-02-20T16:51:23.245Z,12.30
2019-02-20T16:53:45.818Z,12.10
2019-02-20T16:56:27.811Z,12.00
2019-02-20T16:59:05.103Z,11.80
2019-02-20T17:01:42.710Z,11.70
2019-02-20T17:04:17.745Z,11.60
2019-02-20T17:06:53.988Z,11.40
2019-02-20T17:09:29.175Z,11.30
2019-02-20T17:12:04.047Z,11.20
2019-02-20T17:14:39.143Z,11.10
2019-02-20T17:17:15.545Z,11.00
2019-02-20T17:19:50.424Z,10.90
2019-02-20T17:22:25.637Z,10.70
2019-02-20T17:25:01.981Z,10.60
2019-02-20T17:27:38.617Z,10.50
2019-02-20T17:30:13.638Z,10.40
2019-02-20T17:35:32.632Z,10.20
2019-02-20T17:38:09.000Z,10.20
2019-02-20T17:40:44.267Z,10.10
2019-02-20T17:43:19.620Z,10.00
2019-02-20T17:48:31.499Z,9.90
2019-02-20T17:51:06.675Z,9.90
2019-02-20T17:53:45.701Z,9.80
2019-02-20T17:56:21.334Z,9.80
2019-02-20T17:58:57.509Z,9.80
2019-02-20T18:01:34.357Z,9.70
2019-02-20T18:04:10.039Z,9.60
2019-02-20T18:06:44.925Z,9.60
2019-02-20T18:09:20.337Z,9.60
2019-02-20T18:11:55.653Z,9.50
2019-02-20T18:20:08.440Z,9.30
2019-02-20T18:22:43.844Z,9.30
2019-02-20T18:25:20.035Z,9.20
2019-02-20T18:27:59.562Z,9.10
2019-02-20T18:51:22.301Z,8.30
2019-02-20T18:53:57.915Z,8.10
2019-02-20T18:56:34.189Z,8.00
2019-02-20T19:04:57.973Z,8.00
2019-02-20T19:07:34.129Z,7.80
2019-02-20T19:10:18.864Z,7.70
2019-02-20T19:12:54.340Z,7.70
2019-02-20T20:00:13.835Z,6.50
2019-02-20T20:02:49.749Z,6.30
2019-02-20T20:05:28.872Z,6.20
2019-02-20T20:08:04.535Z,6.20
2019-02-20T20:10:40.897Z,6.10
2019-02-20T20:13:16.858Z,6.00
2019-02-20T21:00:42.455Z,5.10
2019-02-20T21:03:26.918Z,5.00
2019-02-20T21:06:02.705Z,5.00
2019-02-20T21:08:37.187Z,4.90
2019-02-20T21:11:12.121Z,4.90
2019-02-20T21:13:47.142Z,4.90
